createdAt,value
2023-05-22T00:01:16.175Z,98038.13
2023-05-22T00:03:43.259Z,98039.09
2023-05-22T00:06:12.029Z,98041.72
2023-05-22T00:08:39.192Z,98038.94
2023-05-22T00:11:06.399Z,98036.75
2023-05-22T00:13:33.655Z,98035.84
2023-05-22T00:16:00.903Z,98039.59
2023-05-22T00:18:28.021Z,98032.97
2023-05-22T00:20:55.397Z,98030.47
2023-05-22T00:23:22.523Z,98031.44
2023-05-22T00:25:50.715Z,98031.63
2023-05-22T00:28:18.466Z,98020.41
2023-05-22T00:30:45.577Z,98032.44
2023-05-22T00:33:12.876Z,98026.91
2023-05-22T00:35:40.071Z,98028.47
2023-05-22T00:38:08.610Z,98022.75
2023-05-22T00:40:36.064Z,98020.41
2023-05-22T00:43:08.400Z,98021.75
2023-05-22T00:45:35.906Z,98024.53
2023-05-22T00:48:03.145Z,98020.47
2023-05-22T00:50:30.306Z,98022.34
2023-05-22T00:52:57.404Z,98021.97
2023-05-22T00:55:24.564Z,98021.66
2023-05-22T00:57:52.052Z,98011.56
2023-05-22T01:00:19.628Z,98014.00
2023-05-22T01:02:46.945Z,98012.03
2023-05-22T01:05:18.118Z,98013.13
2023-05-22T01:07:46.451Z,98005.03
2023-05-22T01:10:13.599Z,98003.72
2023-05-22T01:12:55.576Z,98007.22
2023-05-22T01:15:49.979Z,98010.38
2023-05-22T01:18:25.283Z,98003.38
2023-05-22T01:21:30.465Z,98008.00
2023-05-22T01:24:35.600Z,98010.03
2023-05-22T01:27:26.305Z,98000.78
2023-05-22T01:30:21.294Z,98001.53
2023-05-22T01:32:49.367Z,98002.59
2023-05-22T01:35:19.073Z,98007.22
2023-05-22T01:37:46.889Z,97995.66
2023-05-22T01:40:14.326Z,98003.53
2023-05-22T01:42:41.695Z,98001.53
2023-05-22T01:45:12.218Z,98001.13
2023-05-22T01:47:39.359Z,97997.63
2023-05-22T01:50:06.899Z,97998.22
2023-05-22T01:52:50.396Z,98000.72
2023-05-22T01:55:21.926Z,98000.72
2023-05-22T01:58:14.429Z,97998.88
2023-05-22T02:00:43.858Z,98011.78
2023-05-22T02:03:17.814Z,98009.00
2023-05-22T02:05:45.891Z,98000.00
2023-05-22T02:08:14.143Z,98003.38
2023-05-22T02:10:42.366Z,97993.78
2023-05-22T02:13:09.681Z,97998.84
2023-05-22T02:15:37.015Z,98005.63
2023-05-22T02:18:10.203Z,97996.63
2023-05-22T02:20:37.483Z,97999.78
2023-05-22T02:23:05.058Z,97996.66
2023-05-22T02:25:32.179Z,97993.16
2023-05-22T02:27:59.519Z,97987.88
2023-05-22T02:30:27.047Z,97993.63
2023-05-22T02:32:54.544Z,97995.81
2023-05-22T02:35:21.722Z,97991.75
2023-05-22T02:37:48.842Z,97998.41
2023-05-22T02:40:16.135Z,97992.16
2023-05-22T02:42:43.299Z,97989.25
2023-05-22T02:45:10.533Z,97989.03
2023-05-22T02:47:37.743Z,97987.00
2023-05-22T02:50:05.399Z,97984.66
2023-05-22T02:52:32.619Z,97988.16
2023-05-22T02:54:59.710Z,97982.78
2023-05-22T02:57:27.073Z,97986.13
2023-05-22T02:59:54.145Z,97976.78
2023-05-22T03:02:21.298Z,97983.41
2023-05-22T03:04:48.360Z,97980.31
2023-05-22T03:07:15.606Z,97975.16
2023-05-22T03:09:42.917Z,97984.00
2023-05-22T03:12:10.291Z,97981.06
2023-05-22T03:14:37.419Z,97982.94
2023-05-22T03:17:04.744Z,97978.66
2023-05-22T03:19:31.982Z,97977.56
2023-05-22T03:21:59.137Z,97975.69
2023-05-22T03:24:27.055Z,97979.03
2023-05-22T03:26:54.243Z,97979.88
2023-05-22T03:29:21.642Z,97972.84
2023-05-22T03:31:48.825Z,97977.00
2023-05-22T03:34:16.773Z,97978.09
2023-05-22T03:36:45.180Z,97975.09
2023-05-22T03:39:12.376Z,97965.91
2023-05-22T03:41:39.543Z,97968.25
2023-05-22T03:44:06.731Z,97968.09
2023-05-22T03:46:33.867Z,97959.97
2023-05-22T03:49:01.009Z,97965.50
2023-05-22T03:51:28.130Z,97965.50
2023-05-22T03:53:55.381Z,97957.78
2023-05-22T03:56:22.615Z,97959.44
2023-05-22T03:58:50.473Z,97965.69
2023-05-22T04:01:17.983Z,97970.28
2023-05-22T04:03:45.239Z,97968.44
2023-05-22T04:06:13.778Z,97965.69
2023-05-22T04:08:41.115Z,97964.19
2023-05-22T04:11:08.323Z,97962.34
2023-05-22T04:13:35.544Z,97955.84
2023-05-22T04:16:04.255Z,97965.63
2023-05-22T04:18:31.404Z,97970.00
2023-05-22T04:20:58.666Z,97959.84
2023-05-22T04:23:25.871Z,97970.09
2023-05-22T04:25:53.260Z,97972.06
2023-05-22T04:28:23.445Z,97971.28
2023-05-22T04:30:50.627Z,97969.63
2023-05-22T04:33:18.116Z,97969.97
2023-05-22T04:35:45.323Z,97967.38
2023-05-22T04:38:13.008Z,97969.25
2023-05-22T04:40:40.345Z,97962.41
2023-05-22T04:43:07.698Z,97965.19
2023-05-22T04:45:35.560Z,97961.09
2023-05-22T04:48:02.990Z,97963.50
2023-05-22T04:50:33.185Z,97954.94
2023-05-22T04:53:00.363Z,97965.75
2023-05-22T04:55:27.470Z,97962.03
2023-05-22T04:57:56.298Z,97960.50
2023-05-22T05:00:26.510Z,97959.31
2023-05-22T05:02:53.766Z,97967.25
2023-05-22T05:05:21.815Z,97972.44
2023-05-22T05:07:50.399Z,97977.81
2023-05-22T05:10:17.923Z,97978.19
2023-05-22T05:12:45.167Z,97970.25
2023-05-22T05:15:12.261Z,97967.97
2023-05-22T05:17:39.423Z,97969.88
2023-05-22T05:20:07.721Z,97970.53
2023-05-22T05:22:34.860Z,97975.44
2023-05-22T05:25:01.991Z,97975.16
2023-05-22T05:27:29.324Z,97972.41
2023-05-22T05:29:56.407Z,97967.06
2023-05-22T05:32:23.677Z,97967.53
2023-05-22T05:34:51.514Z,97970.22
2023-05-22T05:37:18.779Z,97962.63
2023-05-22T05:39:45.876Z,97973.16
2023-05-22T05:42:13.073Z,97974.94
2023-05-22T05:44:40.282Z,97972.59
2023-05-22T05:47:07.393Z,97975.97
2023-05-22T05:49:35.843Z,97966.59
2023-05-22T05:52:03.152Z,97977.41
2023-05-22T05:54:30.261Z,97967.72
2023-05-22T05:56:57.374Z,97968.13
2023-05-22T05:59:24.737Z,97972.41
2023-05-22T06:01:51.873Z,97973.38
2023-05-22T06:04:18.968Z,97967.97
2023-05-22T06:06:47.728Z,97965.91
2023-05-22T06:09:14.947Z,97978.47
2023-05-22T06:11:42.181Z,97973.47
2023-05-22T06:14:09.994Z,97971.38
2023-05-22T06:16:37.130Z,97959.34
2023-05-22T06:19:04.784Z,97967.94
2023-05-22T06:21:32.180Z,97968.59
2023-05-22T06:23:59.292Z,97969.47
2023-05-22T06:26:28.866Z,97967.38
2023-05-22T06:28:58.729Z,97972.41
2023-05-22T06:31:25.956Z,97962.44
2023-05-22T06:33:53.112Z,97967.00
2023-05-22T06:36:20.267Z,97957.97
2023-05-22T06:38:49.503Z,97955.69
2023-05-22T06:41:16.652Z,97961.19
2023-05-22T06:43:43.713Z,97954.09
2023-05-22T06:46:11.003Z,97957.59
2023-05-22T06:48:38.169Z,97955.44
2023-05-22T06:51:05.403Z,97952.75
2023-05-22T06:53:32.543Z,97954.97
2023-05-22T06:56:00.190Z,97954.09
2023-05-22T06:58:27.297Z,97957.25
2023-05-22T07:00:55.451Z,97957.25
2023-05-22T07:03:23.046Z,97956.53
2023-05-22T07:05:51.198Z,97953.28
2023-05-22T07:08:18.338Z,97962.38
2023-05-22T07:10:45.457Z,97954.59
2023-05-22T07:13:12.603Z,97954.84
2023-05-22T07:15:39.765Z,97952.38
2023-05-22T07:18:07.755Z,97952.56
2023-05-22T07:20:34.863Z,97952.19
2023-05-22T07:23:01.935Z,97948.72
2023-05-22T07:25:29.218Z,97950.63
2023-05-22T07:27:58.282Z,97943.53
2023-05-22T07:30:25.496Z,97947.94
2023-05-22T07:32:52.704Z,97946.09
2023-05-22T07:35:19.798Z,97943.56
2023-05-22T07:37:46.925Z,97938.72
2023-05-22T07:40:14.073Z,97939.88
2023-05-22T07:42:41.685Z,97934.88
2023-05-22T07:45:10.269Z,97939.66
2023-05-22T07:47:37.365Z,97939.34
2023-05-22T07:50:04.910Z,97935.00
2023-05-22T07:52:32.809Z,97934.09
2023-05-22T07:55:00.258Z,97936.00
2023-05-22T07:57:27.374Z,97935.13
2023-05-22T07:59:54.518Z,97927.75
2023-05-22T08:02:23.761Z,97924.25
2023-05-22T08:04:51.062Z,97924.63
2023-05-22T08:07:18.342Z,97917.97
2023-05-22T08:09:46.772Z,97917.50
2023-05-22T08:12:13.914Z,97922.09
2023-05-22T08:14:41.197Z,97920.47
2023-05-22T08:17:08.470Z,97922.66
2023-05-22T08:19:36.373Z,97917.03
2023-05-22T08:22:03.521Z,97915.50
2023-05-22T08:24:31.419Z,97919.88
2023-05-22T08:26:58.960Z,97906.41
2023-05-22T08:29:26.142Z,97913.38
2023-05-22T08:31:54.104Z,97908.44
2023-05-22T08:34:21.718Z,97907.16
2023-05-22T08:36:49.838Z,97906.06
2023-05-22T08:39:18.898Z,97912.09
2023-05-22T08:41:47.622Z,97903.81
2023-05-22T08:44:14.964Z,97906.97
2023-05-22T08:46:43.950Z,97904.28
2023-05-22T08:49:11.419Z,97916.84
2023-05-22T08:51:40.774Z,97902.47
2023-05-22T08:54:08.929Z,97902.28
2023-05-22T08:56:39.711Z,97898.31
2023-05-22T08:59:13.180Z,97899.28
2023-05-22T09:01:40.554Z,97899.25
2023-05-22T09:04:07.844Z,97895.72
2023-05-22T09:06:35.037Z,97905.75
2023-05-22T09:09:05.918Z,97892.91
2023-05-22T09:11:33.081Z,97892.75
2023-05-22T09:14:10.237Z,97889.13
2023-05-22T09:16:49.489Z,97882.31
2023-05-22T09:19:16.797Z,97887.03
2023-05-22T09:21:47.631Z,97875.97
2023-05-22T09:24:14.967Z,97880.34
2023-05-22T09:26:42.329Z,97877.50
2023-05-22T09:29:09.834Z,97877.16
2023-05-22T09:31:43.797Z,97880.94
2023-05-22T09:34:14.246Z,97874.34
2023-05-22T09:36:42.370Z,97878.38
2023-05-22T09:39:09.649Z,97877.78
2023-05-22T09:41:38.177Z,97879.44
2023-05-22T09:44:15.515Z,97877.47
2023-05-22T09:46:44.588Z,97878.50
2023-05-22T09:49:14.985Z,97868.19
2023-05-22T09:51:47.296Z,97873.94
2023-05-22T09:54:16.093Z,97871.13
2023-05-22T09:56:44.344Z,97870.50
2023-05-22T09:59:12.701Z,97866.25
2023-05-22T10:01:40.717Z,97858.53
2023-05-22T10:04:13.192Z,97866.97
2023-05-22T10:06:41.001Z,97862.56
2023-05-22T10:09:11.263Z,97866.25
2023-05-22T10:11:38.543Z,97869.63
2023-05-22T10:14:05.805Z,97866.38
2023-05-22T10:16:34.312Z,97862.47
2023-05-22T10:19:01.829Z,97855.13
2023-05-22T10:21:30.100Z,97860.94
2023-05-22T10:23:58.054Z,97845.44
2023-05-22T10:26:25.396Z,97849.75
2023-05-22T10:29:12.781Z,97846.41
2023-05-22T10:31:45.582Z,97852.75
2023-05-22T10:34:18.119Z,97848.72
2023-05-22T10:36:52.330Z,97848.00
2023-05-22T10:39:37.581Z,97841.97
2023-05-22T10:42:05.114Z,97845.78
2023-05-22T10:44:33.264Z,97840.59
2023-05-22T10:47:10.211Z,97838.66
2023-05-22T10:49:37.520Z,97840.38
2023-05-22T10:52:04.765Z,97836.63
2023-05-22T10:54:46.000Z,97840.72
2023-05-22T10:57:16.256Z,97833.22
2023-05-22T10:59:43.980Z,97829.56
2023-05-22T11:02:21.696Z,97831.84
2023-05-22T11:04:49.387Z,97832.09
2023-05-22T11:07:16.560Z,97829.16
2023-05-22T11:09:48.658Z,97824.16
2023-05-22T11:12:28.348Z,97821.91
2023-05-22T11:14:59.067Z,97827.84
2023-05-22T11:17:30.668Z,97824.47
2023-05-22T11:20:08.283Z,97820.22
2023-05-22T11:22:36.687Z,97825.03
2023-05-22T11:25:07.552Z,97819.13
2023-05-22T11:27:35.243Z,97823.75
2023-05-22T11:30:02.682Z,97807.38
2023-05-22T11:32:29.922Z,97821.16
2023-05-22T11:34:57.756Z,97818.19
2023-05-22T11:37:24.891Z,97817.75
2023-05-22T11:39:58.592Z,97821.25
2023-05-22T11:42:25.669Z,97806.97
2023-05-22T11:44:52.812Z,97799.91
2023-05-22T11:47:19.972Z,97799.75
2023-05-22T11:49:47.111Z,97805.13
2023-05-22T11:52:16.538Z,97796.56
2023-05-22T11:54:47.523Z,97799.94
2023-05-22T11:57:15.374Z,97798.50
2023-05-22T11:59:46.883Z,97798.44
2023-05-22T12:02:14.592Z,97800.00
2023-05-22T12:04:41.741Z,97801.84
2023-05-22T12:07:09.133Z,97795.75
2023-05-22T12:09:39.425Z,97798.72
2023-05-22T12:12:06.517Z,97794.59
2023-05-22T12:14:33.646Z,97798.22
2023-05-22T12:17:04.276Z,97794.13
2023-05-22T12:19:32.427Z,97791.22
2023-05-22T12:21:59.642Z,97791.22
2023-05-22T12:24:27.319Z,97793.38
2023-05-22T12:26:55.528Z,97789.13
2023-05-22T12:29:22.902Z,97792.38
2023-05-22T12:31:50.267Z,97785.63
2023-05-22T12:34:18.693Z,97785.88
2023-05-22T12:36:47.114Z,97782.63
2023-05-22T12:39:17.445Z,97783.03
2023-05-22T12:41:45.893Z,97782.00
2023-05-22T12:44:15.306Z,97776.47
2023-05-22T12:46:42.921Z,97782.00
2023-05-22T12:49:10.647Z,97772.22
2023-05-22T12:51:37.854Z,97779.03
2023-05-22T12:54:05.265Z,97785.22
2023-05-22T12:56:32.487Z,97779.44
2023-05-22T12:58:59.677Z,97784.31
2023-05-22T13:01:26.883Z,97774.38
2023-05-22T13:03:54.113Z,97782.25
2023-05-22T13:06:21.272Z,97771.97
2023-05-22T13:08:48.454Z,97776.94
2023-05-22T13:11:15.733Z,97763.47
2023-05-22T13:13:42.840Z,97774.47
2023-05-22T13:16:10.813Z,97772.31
2023-05-22T13:18:38.004Z,97770.94
2023-05-22T13:21:05.428Z,97768.13
2023-05-22T13:23:32.678Z,97760.09
2023-05-22T13:26:01.968Z,97761.19
2023-05-22T13:28:29.362Z,97761.19
2023-05-22T13:30:56.615Z,97756.38
2023-05-22T13:33:24.590Z,97758.78
2023-05-22T13:35:52.008Z,97754.53
2023-05-22T13:38:19.209Z,97745.59
2023-05-22T13:40:48.282Z,97747.75
2023-05-22T13:43:16.050Z,97755.97
2023-05-22T13:45:43.259Z,97750.94
2023-05-22T13:48:11.271Z,97753.91
2023-05-22T13:50:38.540Z,97747.75
2023-05-22T13:53:05.851Z,97747.81
2023-05-22T13:55:32.951Z,97742.28
2023-05-22T13:58:00.120Z,97741.72
2023-05-22T14:00:27.327Z,97731.28
2023-05-22T14:02:54.642Z,97733.31
2023-05-22T14:05:22.211Z,97727.13
2023-05-22T14:07:50.271Z,97737.69
2023-05-22T14:10:17.470Z,97725.59
2023-05-22T14:12:44.750Z,97723.94
2023-05-22T14:15:11.984Z,97713.59
2023-05-22T14:17:39.148Z,97720.53
2023-05-22T14:20:07.294Z,97713.72
2023-05-22T14:22:55.454Z,97715.03
2023-05-22T14:25:25.029Z,97711.56
2023-05-22T14:27:52.284Z,97704.72
2023-05-22T14:30:19.561Z,97708.41
2023-05-22T14:32:47.028Z,97697.25
2023-05-22T14:35:16.702Z,97700.22
2023-05-22T14:37:44.212Z,97707.28
2023-05-22T14:40:11.452Z,97700.06
2023-05-22T14:42:39.643Z,97698.91
2023-05-22T14:45:07.363Z,97696.00
2023-05-22T14:47:34.533Z,97698.72
2023-05-22T14:50:17.557Z,97690.22
2023-05-22T14:52:46.670Z,97690.53
2023-05-22T14:55:15.682Z,97691.25
2023-05-22T14:57:42.840Z,97692.63
2023-05-22T15:00:10.860Z,97690.88
2023-05-22T15:02:38.357Z,97683.25
2023-05-22T15:05:07.117Z,97680.75
2023-05-22T15:10:05.790Z,97675.78
2023-05-22T15:12:33.219Z,97670.09
2023-05-22T15:15:01.582Z,97671.22
2023-05-22T15:17:28.897Z,97672.88
2023-05-22T15:19:56.034Z,97672.81
2023-05-22T15:22:23.229Z,97660.09
2023-05-22T15:25:03.672Z,97664.09
2023-05-22T15:27:31.016Z,97661.22
2023-05-22T15:29:58.145Z,97660.50
2023-05-22T15:32:25.696Z,97648.53
2023-05-22T15:34:52.955Z,97652.72
2023-05-22T15:37:20.172Z,97651.19
2023-05-22T15:39:47.340Z,97652.97
2023-05-22T15:42:14.430Z,97641.91
2023-05-22T15:44:41.510Z,97648.31
2023-05-22T15:47:08.664Z,97651.69
2023-05-22T15:49:35.835Z,97641.66
2023-05-22T15:52:02.929Z,97642.13
2023-05-22T15:54:30.028Z,97641.34
2023-05-22T15:56:57.516Z,97640.44
2023-05-22T15:59:24.617Z,97632.78
2023-05-22T16:01:51.753Z,97644.06
2023-05-22T16:04:18.979Z,97639.19
2023-05-22T16:06:46.287Z,97642.00
2023-05-22T16:09:13.505Z,97639.25
2023-05-22T16:11:40.646Z,97632.34
2023-05-22T16:14:07.742Z,97636.63
2023-05-22T16:16:34.934Z,97640.78
2023-05-22T16:19:02.097Z,97634.28
2023-05-22T16:21:29.191Z,97643.13
2023-05-22T16:23:57.521Z,97641.50
2023-05-22T16:26:24.711Z,97637.19
2023-05-22T16:28:51.800Z,97638.84
2023-05-22T16:31:19.890Z,97638.34
2023-05-22T16:33:47.168Z,97634.41
2023-05-22T16:36:14.254Z,97634.41
2023-05-22T16:38:41.884Z,97629.25
2023-05-22T16:41:09.046Z,97629.91
2023-05-22T16:43:37.688Z,97628.28
2023-05-22T16:46:04.958Z,97638.63
2023-05-22T16:48:32.056Z,97625.34
2023-05-22T16:50:59.173Z,97629.56
2023-05-22T16:53:26.300Z,97621.97
2023-05-22T16:55:53.557Z,97621.97
2023-05-22T16:58:21.689Z,97623.97
2023-05-22T17:00:49.035Z,97623.78
2023-05-22T17:03:16.428Z,97629.38
2023-05-22T17:05:43.886Z,97628.59
2023-05-22T17:08:11.209Z,97625.72
2023-05-22T17:10:38.408Z,97621.94
2023-05-22T17:13:05.702Z,97616.06
2023-05-22T17:15:32.796Z,97618.88
2023-05-22T17:17:59.919Z,97615.91
2023-05-22T17:20:27.097Z,97615.81
2023-05-22T17:22:54.172Z,97636.66
2023-05-22T17:25:21.367Z,97621.78
2023-05-22T17:27:48.770Z,97636.25
2023-05-22T17:30:15.933Z,97631.09
2023-05-22T17:32:43.235Z,97633.00
2023-05-22T17:35:10.652Z,97627.06
2023-05-22T17:37:37.732Z,97636.69
2023-05-22T17:40:05.222Z,97642.13
2023-05-22T17:42:33.955Z,97634.19
2023-05-22T17:45:01.372Z,97643.13
2023-05-22T17:47:28.450Z,97645.28
2023-05-22T17:49:55.801Z,97641.03
2023-05-22T17:52:22.897Z,97646.25
2023-05-22T17:54:50.106Z,97639.34
2023-05-22T17:57:17.554Z,97641.06
2023-05-22T17:59:45.000Z,97646.19
2023-05-22T18:02:12.472Z,97640.00
2023-05-22T18:04:39.894Z,97632.50
2023-05-22T18:07:07.090Z,97630.84
2023-05-22T18:09:34.543Z,97636.78
2023-05-22T18:12:03.572Z,97645.47
2023-05-22T18:14:30.841Z,97636.59
2023-05-22T18:16:58.321Z,97643.13
2023-05-22T18:19:25.552Z,97647.28
2023-05-22T18:21:53.643Z,97651.84
2023-05-22T18:24:25.210Z,97641.00
2023-05-22T18:26:52.661Z,97649.38
2023-05-22T18:29:19.908Z,97645.84
2023-05-22T18:31:47.459Z,97645.63
2023-05-22T18:34:14.628Z,97653.69
2023-05-22T18:36:42.249Z,97649.97
2023-05-22T18:39:10.237Z,97649.63
2023-05-22T18:41:37.472Z,97649.63
2023-05-22T18:44:04.959Z,97647.47
2023-05-22T18:46:32.084Z,97643.84
2023-05-22T18:48:59.184Z,97651.41
2023-05-22T18:51:26.750Z,97646.94
2023-05-22T18:53:53.958Z,97650.97
2023-05-22T18:56:21.337Z,97646.72
2023-05-22T18:58:48.493Z,97659.66
2023-05-22T19:01:17.615Z,97660.25
2023-05-22T19:03:44.738Z,97659.81
2023-05-22T19:06:12.790Z,97666.72
2023-05-22T19:08:40.437Z,97669.66
2023-05-22T19:11:07.619Z,97664.34
2023-05-22T19:13:34.968Z,97665.13
2023-05-22T19:16:04.068Z,97662.44
2023-05-22T19:18:31.754Z,97658.09
2023-05-22T19:20:59.647Z,97664.91
2023-05-22T19:23:28.498Z,97667.81
2023-05-22T19:26:01.820Z,97666.22
2023-05-22T19:28:31.024Z,97673.16
2023-05-22T19:30:59.925Z,97666.41
2023-05-22T19:33:28.377Z,97676.38
2023-05-22T19:35:55.512Z,97679.03
2023-05-22T19:38:22.925Z,97694.44
2023-05-22T19:40:50.038Z,97705.94
2023-05-22T19:43:17.317Z,97720.50
2023-05-22T19:45:45.500Z,97725.22
2023-05-22T19:48:13.162Z,97713.13
2023-05-22T19:50:41.229Z,97704.91
2023-05-22T19:53:08.769Z,97716.03
2023-05-22T19:55:35.961Z,97722.66
2023-05-22T19:58:03.063Z,97722.44
2023-05-22T20:00:31.361Z,97723.06
2023-05-22T20:02:58.542Z,97732.63
2023-05-22T20:05:26.023Z,97732.75
2023-05-22T20:07:53.151Z,97735.66
2023-05-22T20:10:20.281Z,97731.91
2023-05-22T20:12:48.045Z,97730.09
2023-05-22T20:15:15.375Z,97728.50
2023-05-22T20:17:48.068Z,97738.34
2023-05-22T20:20:16.073Z,97730.69
2023-05-22T20:22:43.636Z,97733.34
2023-05-22T20:25:10.703Z,97742.94
2023-05-22T20:27:38.088Z,97741.38
2023-05-22T20:30:07.481Z,97745.50
2023-05-22T20:32:35.127Z,97736.53
2023-05-22T20:35:03.494Z,97738.22
2023-05-22T20:37:34.719Z,97725.03
2023-05-22T20:40:09.379Z,97729.63
2023-05-22T20:42:37.689Z,97728.75
2023-05-22T20:45:05.843Z,97719.44
2023-05-22T20:47:36.224Z,97719.53
2023-05-22T20:50:03.440Z,97723.16
2023-05-22T20:52:30.535Z,97718.56
2023-05-22T20:54:58.007Z,97709.56
2023-05-22T20:57:25.504Z,97707.13
2023-05-22T20:59:53.688Z,97699.00
2023-05-22T21:02:21.089Z,97707.44
2023-05-22T21:04:48.153Z,97702.56
2023-05-22T21:07:15.398Z,97710.59
2023-05-22T21:09:43.019Z,97714.72
2023-05-22T21:12:10.118Z,97712.50
2023-05-22T21:14:37.239Z,97713.97
2023-05-22T21:17:04.484Z,97721.81
2023-05-22T21:19:31.772Z,97722.53
2023-05-22T21:21:58.907Z,97724.69
2023-05-22T21:24:25.999Z,97730.59
2023-05-22T21:26:53.062Z,97736.47
2023-05-22T21:29:20.557Z,97745.56
2023-05-22T21:31:48.088Z,97755.66
2023-05-22T21:34:15.265Z,97751.31
2023-05-22T21:36:42.363Z,97751.31
2023-05-22T21:39:09.571Z,97755.38
2023-05-22T21:41:36.650Z,97753.19
2023-05-22T21:44:03.747Z,97750.31
2023-05-22T21:46:31.725Z,97754.41
2023-05-22T21:48:59.891Z,97765.94
2023-05-22T21:51:27.330Z,97761.69
2023-05-22T21:53:54.920Z,97758.91
2023-05-22T21:56:22.019Z,97741.69
2023-05-22T21:58:49.132Z,97730.72
2023-05-22T22:01:16.457Z,97730.84
2023-05-22T22:03:43.648Z,97723.84
2023-05-22T22:06:11.191Z,97731.88
2023-05-22T22:08:38.261Z,97741.53
2023-05-22T22:11:05.801Z,97765.38
2023-05-22T22:13:32.877Z,97772.13
2023-05-22T22:16:00.000Z,97783.56
2023-05-22T22:18:27.232Z,97796.91
2023-05-22T22:20:55.797Z,97798.72
2023-05-22T22:23:23.289Z,97793.94
2023-05-22T22:25:50.732Z,97790.78
2023-05-22T22:28:17.819Z,97781.72
2023-05-22T22:30:45.287Z,97773.91
2023-05-22T22:33:12.817Z,97780.50
2023-05-22T22:35:40.679Z,97786.63
2023-05-22T22:38:08.325Z,97787.47
2023-05-22T22:40:35.747Z,97783.75
2023-05-22T22:43:03.673Z,97777.91
2023-05-22T22:45:31.201Z,97768.69
2023-05-22T22:47:58.358Z,97766.91
2023-05-22T22:50:25.526Z,97765.72
2023-05-22T22:52:52.862Z,97761.00
2023-05-22T22:55:20.632Z,97756.91
2023-05-22T22:57:49.978Z,97770.53
2023-05-22T23:00:18.905Z,97782.97
2023-05-22T23:02:47.029Z,97814.03
2023-05-22T23:05:14.925Z,97812.91
2023-05-22T23:07:42.099Z,97798.06
2023-05-22T23:10:09.900Z,97783.16
2023-05-22T23:12:36.991Z,97764.25
2023-05-22T23:15:05.361Z,97736.91
2023-05-22T23:17:32.545Z,97744.34
2023-05-22T23:19:59.687Z,97762.41
2023-05-22T23:22:26.890Z,97770.38
2023-05-22T23:24:53.949Z,97777.94
2023-05-22T23:27:22.213Z,97770.97
2023-05-22T23:29:49.308Z,97775.72
2023-05-22T23:32:16.911Z,97773.91
2023-05-22T23:34:44.039Z,97776.84
2023-05-22T23:37:11.122Z,97777.41
2023-05-22T23:39:38.504Z,97777.06
2023-05-22T23:42:05.900Z,97767.53
2023-05-22T23:44:33.024Z,97765.53
2023-05-22T23:47:00.279Z,97750.13
2023-05-22T23:49:27.442Z,97737.69
2023-05-22T23:51:54.593Z,97724.69
2023-05-22T23:54:21.701Z,97742.34
2023-05-22T23:56:48.783Z,97740.47
2023-05-22T23:59:15.976Z,97738.09
